Time;durP1;ratioP1;P1;durP2;ratioP2;P2;SDS_P1;SDS_P2;PMS_P1;PMS_P2;Temp;Humidity;BMP_temperature;BMP_pressure;BME280_temperature;BME280_humidity;BME280_pressure;Samples;Min_cycle;Max_cycle;Signal;HPM_P1;HPM_P2
2022/03/31 00:00:11;;;;;;;10.43;7.77;;;7.60;73.00;;;;;;955107;149;27329;-78
2022/03/31 00:02:37;;;;;;;9.70;8.70;;;7.60;72.80;;;;;;955077;149;27340;-76
2022/03/31 00:05:04;;;;;;;11.50;9.00;;;7.60;73.00;;;;;;956931;148;27776;-76
2022/03/31 00:07:30;;;;;;;9.13;8.20;;;7.60;73.20;;;;;;957183;149;27397;-76
2022/03/31 00:09:57;;;;;;;11.17;7.73;;;7.60;73.00;;;;;;956240;149;27977;-76
2022/03/31 00:12:24;;;;;;;10.43;7.87;;;7.50;73.40;;;;;;956387;149;27280;-76
2022/03/31 00:14:50;;;;;;;9.23;7.33;;;7.50;73.10;;;;;;956353;149;27368;-78
2022/03/31 00:17:17;;;;;;;10.20;8.07;;;7.50;73.00;;;;;;955938;149;27413;-75
2022/03/31 00:19:43;;;;;;;10.57;8.50;;;7.50;73.10;;;;;;958064;149;27380;-76
2022/03/31 00:22:10;;;;;;;9.80;8.50;;;7.50;73.20;;;;;;957392;149;27445;-76
2022/03/31 00:24:37;;;;;;;11.90;8.63;;;7.40;73.20;;;;;;955621;149;27350;-77
2022/03/31 00:27:04;;;;;;;10.80;8.23;;;7.40;73.10;;;;;;956546;149;27419;-79
2022/03/31 00:29:30;;;;;;;11.03;8.37;;;7.40;73.20;;;;;;955199;146;27383;-76
2022/03/31 00:31:56;;;;;;;9.90;7.90;;;7.40;73.20;;;;;;954769;146;27431;-76
2022/03/31 00:34:23;;;;;;;9.50;7.53;;;7.40;73.30;;;;;;954498;146;27314;-77
2022/03/31 00:36:50;;;;;;;11.93;8.30;;;7.30;73.40;;;;;;956377;146;27627;-77
2022/03/31 00:39:34;;;;;;;10.40;8.13;;;7.30;73.30;;;;;;954774;146;27360;-76
2022/03/31 00:42:02;;;;;;;10.13;8.40;;;7.30;73.70;;;;;;953399;146;27408;-76
2022/03/31 00:44:27;;;;;;;10.07;7.73;;;7.30;73.20;;;;;;954403;146;27400;-76
2022/03/31 00:46:54;;;;;;;12.43;9.03;;;7.30;73.50;;;;;;954321;146;27288;-76
2022/03/31 00:49:21;;;;;;;10.40;7.33;;;7.30;73.50;;;;;;955363;146;27309;-76
2022/03/31 00:51:47;;;;;;;9.60;7.97;;;7.20;73.50;;;;;;954528;146;27321;-78
2022/03/31 00:54:14;;;;;;;10.53;8.60;;;7.20;73.40;;;;;;944595;148;27334;-76
2022/03/31 00:56:40;;;;;;;9.87;7.77;;;7.30;73.50;;;;;;936305;148;28165;-76
2022/03/31 00:59:08;;;;;;;11.13;7.80;;;7.20;73.50;;;;;;943704;148;27470;-77
2022/03/31 01:01:33;;;;;;;9.73;8.20;;;7.20;73.70;;;;;;947317;147;27400;-76
2022/03/31 01:04:00;;;;;;;10.57;8.27;;;7.20;73.90;;;;;;953236;145;27321;-77
2022/03/31 01:06:27;;;;;;;9.83;7.83;;;7.30;73.90;;;;;;954707;145;27776;-76
2022/03/31 01:08:53;;;;;;;11.50;9.30;;;7.30;73.90;;;;;;952919;146;27322;-76
2022/03/31 01:11:21;;;;;;;10.73;8.23;;;7.30;74.00;;;;;;951645;147;27310;-76
2022/03/31 01:13:46;;;;;;;13.00;8.63;;;7.30;74.00;;;;;;954015;147;27406;-75
2022/03/31 01:16:13;;;;;;;11.20;8.97;;;7.30;74.00;;;;;;953282;147;27376;-78
2022/03/31 01:18:40;;;;;;;10.27;8.10;;;7.30;74.10;;;;;;953605;147;27348;-76
2022/03/31 01:21:06;;;;;;;10.07;8.07;;;7.40;74.20;;;;;;953949;147;27320;-75
2022/03/31 01:23:33;;;;;;;9.80;7.87;;;7.40;74.10;;;;;;949490;147;27303;-76
2022/03/31 01:25:59;;;;;;;11.33;8.63;;;7.50;74.20;;;;;;953200;147;27296;-77
2022/03/31 01:28:26;;;;;;;10.47;8.40;;;7.50;74.10;;;;;;951433;147;27725;-77
2022/03/31 01:30:53;;;;;;;10.20;8.37;;;7.50;74.00;;;;;;952405;147;27399;-76
2022/03/31 01:33:19;;;;;;;11.07;8.57;;;7.60;74.10;;;;;;953445;147;27322;-76
2022/03/31 01:35:46;;;;;;;10.40;8.53;;;7.60;74.00;;;;;;953758;147;27263;-76
2022/03/31 01:38:13;;;;;;;11.30;8.63;;;7.60;73.70;;;;;;953961;147;27415;-76
2022/03/31 01:40:39;;;;;;;10.57;8.33;;;7.60;73.70;;;;;;953270;147;27362;-78
2022/03/31 01:43:07;;;;;;;9.37;7.83;;;7.60;73.70;;;;;;954054;147;27352;-76
2022/03/31 01:45:33;;;;;;;10.17;8.20;;;7.60;73.70;;;;;;953408;147;27352;-77
2022/03/31 01:47:59;;;;;;;9.90;8.13;;;7.60;73.60;;;;;;952580;147;27422;-76
2022/03/31 01:50:25;;;;;;;12.80;9.00;;;7.60;73.60;;;;;;951673;147;27361;-76
2022/03/31 01:52:52;;;;;;;10.07;8.17;;;7.50;73.50;;;;;;952335;147;27880;-78
2022/03/31 01:55:18;;;;;;;11.30;8.50;;;7.50;73.50;;;;;;951925;147;27352;-76
2022/03/31 01:57:45;;;;;;;11.40;8.50;;;7.50;73.50;;;;;;953519;147;27855;-75
2022/03/31 02:00:13;;;;;;;11.90;8.90;;;7.50;73.50;;;;;;951942;147;27336;-76
2022/03/31 02:02:39;;;;;;;10.20;7.93;;;7.50;73.60;;;;;;952223;147;27313;-76
2022/03/31 02:05:06;;;;;;;11.93;7.97;;;7.50;73.70;;;;;;953879;147;27356;-76
2022/03/31 02:07:32;;;;;;;9.80;7.80;;;7.50;73.70;;;;;;952794;147;27362;-75
2022/03/31 02:09:58;;;;;;;8.93;7.90;;;7.50;73.80;;;;;;953477;147;27666;-75
2022/03/31 02:12:24;;;;;;;9.23;7.60;;;7.40;73.90;;;;;;953749;147;27291;-76
2022/03/31 02:14:51;;;;;;;9.40;8.13;;;7.50;74.00;;;;;;953859;147;27310;-76
2022/03/31 02:17:18;;;;;;;11.07;9.23;;;7.40;74.00;;;;;;954657;147;27314;-76
2022/03/31 02:19:44;;;;;;;11.37;8.23;;;7.40;74.20;;;;;;955445;147;27407;-75
2022/03/31 02:22:11;;;;;;;9.87;8.27;;;7.40;74.30;;;;;;952518;147;27417;-76
2022/03/31 02:24:38;;;;;;;11.07;8.63;;;7.40;74.20;;;;;;951556;147;27310;-76
2022/03/31 02:27:04;;;;;;;10.53;7.47;;;7.50;74.30;;;;;;953028;147;27889;-76
2022/03/31 02:29:31;;;;;;;22.73;11.40;;;7.40;74.60;;;;;;952636;147;27322;-78
2022/03/31 02:31:57;;;;;;;16.67;11.67;;;7.50;74.70;;;;;;953507;147;27381;-78
2022/03/31 02:34:24;;;;;;;15.97;10.53;;;7.50;74.80;;;;;;954555;147;27346;-78
2022/03/31 02:36:50;;;;;;;12.90;9.33;;;7.50;74.70;;;;;;953308;147;27397;-79
2022/03/31 02:39:17;;;;;;;13.53;9.73;;;7.50;74.80;;;;;;954297;147;27458;-78
2022/03/31 02:41:43;;;;;;;13.27;8.93;;;7.50;75.00;;;;;;952484;147;27312;-78
2022/03/31 02:44:10;;;;;;;10.20;8.57;;;7.50;74.90;;;;;;953590;147;27331;-78
2022/03/31 02:46:38;;;;;;;12.73;8.77;;;7.60;75.10;;;;;;954703;147;27817;-78
2022/03/31 02:49:04;;;;;;;11.73;9.40;;;7.60;74.80;;;;;;951335;147;27374;-79
2022/03/31 02:51:30;;;;;;;10.57;8.63;;;7.60;74.80;;;;;;953619;147;27302;-79
2022/03/31 02:56:42;;;;;;;10.37;8.00;;;7.60;74.50;;;;;;953704;147;27348;-78
2022/03/31 02:59:08;;;;;;;10.37;8.03;;;7.60;74.30;;;;;;953725;147;27938;-79
2022/03/31 03:01:34;;;;;;;10.40;8.50;;;7.60;74.30;;;;;;952221;147;27405;-78
2022/03/31 03:04:01;;;;;;;10.07;8.70;;;7.60;74.30;;;;;;953941;147;27269;-79
2022/03/31 03:06:28;;;;;;;12.83;9.23;;;7.50;74.10;;;;;;954679;147;27338;-78
2022/03/31 03:08:57;;;;;;;11.43;8.87;;;7.50;74.10;;;;;;953451;147;27920;-79
2022/03/31 03:11:21;;;;;;;11.63;9.13;;;7.40;73.90;;;;;;951671;147;27302;-79
2022/03/31 03:13:47;;;;;;;12.93;9.47;;;7.40;74.20;;;;;;952395;147;27298;-79
2022/03/31 03:16:14;;;;;;;12.83;9.83;;;7.40;73.90;;;;;;938064;148;28885;-78
2022/03/31 03:18:40;;;;;;;12.23;9.93;;;7.30;74.00;;;;;;939348;148;27262;-78
2022/03/31 03:21:07;;;;;;;11.77;8.57;;;7.30;74.10;;;;;;950863;148;27362;-79
2022/03/31 03:23:34;;;;;;;11.60;8.43;;;7.20;74.30;;;;;;952975;147;27402;-78
2022/03/31 03:26:03;;;;;;;10.40;8.37;;;7.20;74.60;;;;;;952434;147;27317;-78
2022/03/31 03:28:27;;;;;;;10.17;8.10;;;7.10;74.60;;;;;;952652;147;27874;-79
2022/03/31 03:30:53;;;;;;;12.40;8.60;;;7.10;74.50;;;;;;952481;147;27320;-79
2022/03/31 03:33:20;;;;;;;10.40;8.67;;;7.10;74.60;;;;;;953202;147;27880;-79
2022/03/31 03:35:47;;;;;;;13.30;9.33;;;7.00;75.00;;;;;;953218;147;27335;-78
2022/03/31 03:38:17;;;;;;;11.63;8.03;;;7.00;75.30;;;;;;951647;147;27309;-79
2022/03/31 03:40:43;;;;;;;10.87;8.97;;;7.00;75.30;;;;;;952600;147;27448;-79
2022/03/31 03:43:09;;;;;;;11.57;8.70;;;7.00;75.10;;;;;;952640;147;27277;-78
2022/03/31 03:45:36;;;;;;;10.50;8.57;;;7.00;75.40;;;;;;953920;147;27430;-78
2022/03/31 03:48:02;;;;;;;12.30;8.70;;;7.10;75.40;;;;;;953778;147;27447;-79
2022/03/31 03:50:29;;;;;;;10.63;8.37;;;7.00;75.60;;;;;;951112;147;27341;-79
2022/03/31 03:52:56;;;;;;;12.33;9.33;;;7.10;75.80;;;;;;956054;147;27619;-78
2022/03/31 03:55:23;;;;;;;12.80;9.30;;;7.10;75.80;;;;;;954701;147;27799;-78
2022/03/31 03:57:49;;;;;;;11.00;8.90;;;7.10;75.90;;;;;;952355;147;27421;-78
2022/03/31 04:00:15;;;;;;;12.13;9.50;;;7.20;76.00;;;;;;951207;147;27314;-79
2022/03/31 04:02:42;;;;;;;11.47;8.47;;;7.20;75.70;;;;;;952144;147;27435;-79
2022/03/31 04:05:09;;;;;;;12.43;9.30;;;7.20;75.40;;;;;;951210;147;27325;-78
2022/03/31 04:07:35;;;;;;;12.20;9.23;;;7.20;75.50;;;;;;955257;147;27781;-79
2022/03/31 04:10:02;;;;;;;10.23;8.27;;;7.20;75.40;;;;;;952674;147;27417;-78
2022/03/31 04:12:28;;;;;;;9.97;8.20;;;7.20;75.40;;;;;;953901;147;27378;-78
2022/03/31 04:14:55;;;;;;;9.83;8.57;;;7.20;75.30;;;;;;953108;147;27408;-79
2022/03/31 04:17:21;;;;;;;9.33;7.50;;;7.10;75.30;;;;;;952629;147;27297;-79
2022/03/31 04:19:48;;;;;;;11.13;7.70;;;7.10;75.40;;;;;;954629;147;29070;-79
2022/03/31 04:22:15;;;;;;;10.30;8.53;;;7.00;75.60;;;;;;952688;147;27434;-79
2022/03/31 04:24:41;;;;;;;11.80;8.87;;;7.00;75.70;;;;;;952338;147;27928;-79
2022/03/31 04:27:08;;;;;;;9.43;7.73;;;6.90;75.70;;;;;;951812;147;27376;-79
2022/03/31 04:29:34;;;;;;;10.23;8.80;;;6.90;75.90;;;;;;955078;147;27262;-78
2022/03/31 04:32:01;;;;;;;10.97;9.13;;;6.90;76.00;;;;;;946927;147;27462;-78
2022/03/31 04:34:28;;;;;;;12.03;9.17;;;6.90;76.10;;;;;;951301;148;27365;-78
2022/03/31 04:36:54;;;;;;;11.83;8.47;;;6.90;76.20;;;;;;938787;149;29260;-79
2022/03/31 04:39:21;;;;;;;11.20;9.33;;;6.90;77.00;;;;;;941566;151;27273;-78
2022/03/31 04:41:47;;;;;;;10.70;8.80;;;6.90;76.00;;;;;;950322;148;27782;-78
2022/03/31 04:44:14;;;;;;;12.43;8.63;;;6.90;76.10;;;;;;943115;151;27278;-78
2022/03/31 04:46:41;;;;;;;11.23;8.70;;;6.90;76.30;;;;;;941752;150;27336;-78
2022/03/31 04:49:07;;;;;;;10.83;8.93;;;6.90;76.20;;;;;;938646;152;27357;-79
2022/03/31 04:51:34;;;;;;;13.73;9.13;;;6.80;76.20;;;;;;956186;149;27269;-78
2022/03/31 04:54:00;;;;;;;10.43;7.93;;;6.80;76.30;;;;;;957703;149;27348;-78
2022/03/31 04:56:27;;;;;;;10.83;9.53;;;6.80;76.50;;;;;;956026;149;27228;-79
2022/03/31 04:58:53;;;;;;;11.30;9.30;;;6.80;76.60;;;;;;956609;149;27440;-79
2022/03/31 05:01:22;;;;;;;10.03;9.00;;;6.80;76.50;;;;;;957064;149;27323;-78
2022/03/31 05:03:47;;;;;;;10.33;8.57;;;6.70;76.50;;;;;;942139;151;27426;-78
2022/03/31 05:06:14;;;;;;;11.53;9.30;;;6.70;76.60;;;;;;940793;151;27250;-78
2022/03/31 05:08:40;;;;;;;11.73;9.07;;;6.70;76.50;;;;;;943188;151;27636;-79
2022/03/31 05:11:06;;;;;;;13.00;9.23;;;6.80;76.50;;;;;;956642;148;27436;-79
2022/03/31 05:13:33;;;;;;;12.27;9.53;;;6.80;76.70;;;;;;937340;151;27262;-78
2022/03/31 05:16:00;;;;;;;12.50;9.80;;;6.80;76.80;;;;;;939027;151;27391;-78
2022/03/31 05:18:26;;;;;;;11.30;9.43;;;6.80;76.70;;;;;;941340;150;27777;-78
2022/03/31 05:20:53;;;;;;;10.87;9.47;;;6.80;76.70;;;;;;944286;149;27390;-79
2022/03/31 05:23:19;;;;;;;12.03;9.33;;;6.80;76.70;;;;;;939637;152;27443;-79
2022/03/31 05:25:46;;;;;;;12.33;9.70;;;6.80;76.90;;;;;;940679;152;27380;-78
2022/03/31 05:28:13;;;;;;;15.53;10.57;;;6.90;77.10;;;;;;940320;150;27385;-79
2022/03/31 05:30:39;;;;;;;13.00;10.40;;;6.90;76.90;;;;;;939777;152;27316;-79
2022/03/31 05:33:08;;;;;;;14.27;10.40;;;6.90;77.00;;;;;;943025;150;27923;-79
2022/03/31 05:35:32;;;;;;;11.70;9.67;;;7.00;77.00;;;;;;951090;147;27334;-78
2022/03/31 05:37:59;;;;;;;13.97;10.73;;;7.00;77.10;;;;;;949979;147;27420;-78
2022/03/31 05:40:25;;;;;;;10.77;9.63;;;7.00;77.20;;;;;;946747;147;27325;-79
2022/03/31 05:42:52;;;;;;;13.43;10.00;;;7.10;77.10;;;;;;949811;147;27286;-79
2022/03/31 05:45:19;;;;;;;12.17;10.00;;;7.10;77.00;;;;;;950609;147;27329;-78
2022/03/31 05:47:45;;;;;;;11.93;9.73;;;7.20;77.10;;;;;;952693;147;27616;-78
2022/03/31 05:50:12;;;;;;;10.53;9.40;;;7.20;77.10;;;;;;951888;147;27390;-78
2022/03/31 05:52:43;;;;;;;12.47;9.63;;;7.20;77.10;;;;;;951378;147;27337;-79
2022/03/31 05:55:08;;;;;;;13.17;9.63;;;7.30;77.10;;;;;;950142;147;27365;-79
2022/03/31 05:57:34;;;;;;;12.97;11.07;;;7.30;77.00;;;;;;949854;147;27255;-78
2022/03/31 06:00:01;;;;;;;12.57;9.90;;;7.30;76.80;;;;;;950030;147;27360;-78
2022/03/31 06:02:27;;;;;;;14.90;11.93;;;7.40;77.00;;;;;;952132;147;27401;-78
2022/03/31 06:04:54;;;;;;;12.37;10.80;;;7.40;76.80;;;;;;951781;147;27347;-79
2022/03/31 06:07:21;;;;;;;13.30;11.30;;;7.50;76.70;;;;;;948065;147;27295;-78
2022/03/31 06:09:47;;;;;;;16.00;11.67;;;7.50;76.70;;;;;;950058;147;27850;-78
2022/03/31 06:12:14;;;;;;;14.13;11.47;;;7.50;76.60;;;;;;946927;147;27325;-78
2022/03/31 06:14:41;;;;;;;15.03;11.63;;;7.50;76.40;;;;;;950667;147;27362;-79
2022/03/31 06:17:08;;;;;;;13.53;11.47;;;7.60;76.40;;;;;;951053;147;27403;-79
2022/03/31 06:19:34;;;;;;;14.07;10.47;;;7.60;76.20;;;;;;948849;147;27345;-78
2022/03/31 06:22:00;;;;;;;13.97;11.10;;;7.60;76.10;;;;;;939783;148;27372;-78
2022/03/31 06:24:27;;;;;;;13.57;11.20;;;7.70;76.10;;;;;;954742;147;27397;-78
2022/03/31 06:26:56;;;;;;;14.23;10.83;;;7.70;76.10;;;;;;955790;147;27403;-79
2022/03/31 06:29:20;;;;;;;14.07;11.53;;;7.70;76.10;;;;;;954864;147;27656;-79
2022/03/31 06:31:46;;;;;;;15.43;12.00;;;7.70;76.00;;;;;;951905;147;27332;-78
2022/03/31 06:34:13;;;;;;;14.13;12.00;;;7.80;75.90;;;;;;954893;147;27305;-78
2022/03/31 06:36:40;;;;;;;15.27;11.43;;;7.80;75.80;;;;;;953286;147;27364;-78
2022/03/31 06:39:06;;;;;;;14.63;11.10;;;7.80;75.80;;;;;;953233;147;27346;-78
2022/03/31 06:41:33;;;;;;;13.67;10.67;;;7.90;76.00;;;;;;954586;147;27359;-79
2022/03/31 06:44:00;;;;;;;14.43;12.27;;;7.90;76.00;;;;;;954597;147;27278;-78
2022/03/31 06:46:26;;;;;;;14.03;12.07;;;8.00;76.10;;;;;;953631;147;27416;-79
2022/03/31 06:48:53;;;;;;;14.87;11.77;;;8.00;76.00;;;;;;951160;147;27413;-79
2022/03/31 06:51:19;;;;;;;16.17;13.13;;;8.10;76.10;;;;;;954474;147;27340;-78
2022/03/31 06:53:46;;;;;;;18.50;12.23;;;8.10;76.10;;;;;;952002;147;27365;-78
2022/03/31 06:56:18;;;;;;;14.63;11.90;;;8.20;76.00;;;;;;952315;147;27270;-78
2022/03/31 06:58:39;;;;;;;15.30;11.53;;;8.30;75.90;;;;;;951965;147;27856;-79
2022/03/31 07:01:05;;;;;;;14.53;11.87;;;8.30;76.50;;;;;;956083;147;27394;-78
2022/03/31 07:03:32;;;;;;;13.70;11.57;;;8.40;75.70;;;;;;955690;147;27344;-79
2022/03/31 07:05:59;;;;;;;13.63;11.80;;;8.50;75.60;;;;;;954721;147;27330;-79
2022/03/31 07:08:25;;;;;;;13.33;10.70;;;8.50;75.50;;;;;;953373;147;27330;-78
2022/03/31 07:10:52;;;;;;;14.57;11.27;;;8.60;75.50;;;;;;953682;147;27322;-78
2022/03/31 07:13:19;;;;;;;14.80;11.43;;;8.70;75.40;;;;;;955055;147;27402;-80
2022/03/31 07:15:45;;;;;;;13.03;10.67;;;8.80;75.40;;;;;;953579;147;27340;-80
2022/03/31 07:18:12;;;;;;;15.07;12.10;;;8.80;75.30;;;;;;953212;147;27352;-80
2022/03/31 07:20:38;;;;;;;13.67;11.60;;;8.90;75.20;;;;;;952323;147;27424;-80
2022/03/31 07:23:05;;;;;;;15.97;12.20;;;9.00;75.00;;;;;;951871;147;27341;-80
2022/03/31 07:25:31;;;;;;;13.83;11.63;;;9.10;75.10;;;;;;952965;147;27907;-78
2022/03/31 07:27:58;;;;;;;15.40;11.57;;;9.10;75.00;;;;;;955049;147;27324;-78
2022/03/31 07:30:25;;;;;;;15.63;11.47;;;9.20;75.00;;;;;;951884;147;28100;-77
2022/03/31 07:32:57;;;;;;;14.40;12.20;;;9.30;74.80;;;;;;952644;147;27272;-78
2022/03/31 07:35:24;;;;;;;13.93;11.53;;;9.40;74.30;;;;;;954209;147;27446;-78
2022/03/31 07:37:51;;;;;;;14.30;11.67;;;9.50;74.00;;;;;;952311;147;27344;-80
2022/03/31 07:40:16;;;;;;;14.23;11.60;;;9.50;73.80;;;;;;953048;147;27348;-80
2022/03/31 07:42:43;;;;;;;12.97;11.27;;;9.50;73.90;;;;;;951646;147;27290;-80
2022/03/31 07:45:11;;;;;;;16.93;12.27;;;9.60;74.00;;;;;;953972;147;27386;-80
2022/03/31 07:47:36;;;;;;;14.27;11.50;;;9.70;74.10;;;;;;952418;147;27301;-79
2022/03/31 07:50:03;;;;;;;15.40;12.70;;;9.80;74.10;;;;;;952133;147;27424;-79
2022/03/31 07:52:30;;;;;;;16.47;12.37;;;9.80;73.90;;;;;;955086;147;27366;-80
2022/03/31 07:54:56;;;;;;;15.17;13.20;;;9.90;73.50;;;;;;953474;147;27360;-79
2022/03/31 07:57:23;;;;;;;14.20;11.73;;;10.00;73.20;;;;;;952544;147;27310;-80
2022/03/31 07:59:49;;;;;;;13.37;11.97;;;10.10;73.10;;;;;;953003;147;27337;-79
2022/03/31 08:02:16;;;;;;;16.27;12.23;;;10.10;73.40;;;;;;953805;147;27347;-79
2022/03/31 08:04:42;;;;;;;12.97;10.67;;;10.20;73.00;;;;;;951566;147;27458;-79
2022/03/31 08:07:09;;;;;;;16.43;13.10;;;10.30;73.20;;;;;;953453;147;27277;-80
2022/03/31 08:09:35;;;;;;;13.93;12.40;;;10.30;73.00;;;;;;950582;147;27413;-79
2022/03/31 08:12:02;;;;;;;14.23;11.90;;;10.40;73.10;;;;;;953901;147;27351;-80
2022/03/31 08:14:29;;;;;;;13.30;11.90;;;10.50;72.90;;;;;;953845;147;27805;-80
2022/03/31 08:16:56;;;;;;;13.67;11.07;;;10.70;72.70;;;;;;953381;147;27440;-80
2022/03/31 08:19:22;;;;;;;13.93;11.57;;;10.70;72.20;;;;;;952849;147;27325;-80
2022/03/31 08:21:48;;;;;;;15.07;12.07;;;10.80;71.80;;;;;;952616;147;27246;-79
2022/03/31 08:24:15;;;;;;;14.13;12.13;;;10.90;71.60;;;;;;952010;147;27455;-80
2022/03/31 08:26:42;;;;;;;14.23;11.90;;;10.90;71.40;;;;;;950715;147;27420;-79
2022/03/31 08:29:08;;;;;;;12.43;11.13;;;10.90;71.40;;;;;;953498;147;27431;-80
2022/03/31 08:31:35;;;;;;;12.10;10.77;;;11.00;71.50;;;;;;953060;147;27279;-79
2022/03/31 08:34:01;;;;;;;12.90;11.37;;;11.10;71.40;;;;;;955092;147;27301;-79
2022/03/31 08:36:29;;;;;;;13.00;11.47;;;11.20;71.50;;;;;;954605;147;27314;-80
2022/03/31 08:38:55;;;;;;;12.60;11.17;;;11.20;71.40;;;;;;952516;147;27391;-80
2022/03/31 08:41:21;;;;;;;13.93;11.13;;;11.30;71.60;;;;;;953412;147;28045;-80
2022/03/31 08:43:48;;;;;;;15.33;12.00;;;11.50;71.70;;;;;;953796;147;27286;-80
2022/03/31 08:46:15;;;;;;;13.20;11.63;;;11.60;71.70;;;;;;951358;147;27293;-80
2022/03/31 08:48:41;;;;;;;13.07;11.67;;;11.80;71.40;;;;;;953746;147;27305;-80
2022/03/31 08:51:08;;;;;;;15.60;11.60;;;11.90;71.00;;;;;;951758;147;27535;-80
2022/03/31 08:53:34;;;;;;;13.83;11.77;;;12.00;70.70;;;;;;953891;147;27434;-79
2022/03/31 08:56:01;;;;;;;14.47;12.97;;;12.10;70.40;;;;;;953540;147;27350;-80
2022/03/31 08:58:27;;;;;;;14.37;12.50;;;12.20;70.30;;;;;;953716;147;27253;-80
2022/03/31 09:00:54;;;;;;;12.63;11.33;;;12.30;69.90;;;;;;951031;147;27301;-80
2022/03/31 09:03:20;;;;;;;14.40;12.23;;;12.40;69.80;;;;;;954704;147;27361;-80
2022/03/31 09:05:49;;;;;;;12.47;11.17;;;12.50;69.60;;;;;;953344;147;27519;-80
2022/03/31 09:08:14;;;;;;;14.63;13.07;;;12.60;69.60;;;;;;951873;147;27234;-79
2022/03/31 09:10:44;;;;;;;13.30;11.63;;;12.70;69.30;;;;;;951829;147;27705;-80
2022/03/31 09:13:19;;;;;;;13.27;11.83;;;12.80;69.30;;;;;;954594;147;27344;-80
2022/03/31 09:15:51;;;;;;;12.67;11.37;;;13.00;69.20;;;;;;943628;148;27430;-80
2022/03/31 09:18:19;;;;;;;12.97;11.60;;;13.10;68.90;;;;;;939446;148;27903;-80
2022/03/31 09:20:47;;;;;;;15.60;12.60;;;13.20;68.50;;;;;;951497;148;27256;-80
2022/03/31 09:23:16;;;;;;;13.23;11.77;;;13.30;69.00;;;;;;953698;147;27359;-80
2022/03/31 09:25:42;;;;;;;14.33;12.57;;;13.30;68.00;;;;;;950904;147;27297;-80
2022/03/31 09:28:18;;;;;;;12.73;11.47;;;13.40;67.30;;;;;;951897;147;27269;-80
2022/03/31 09:30:44;;;;;;;12.87;11.57;;;13.40;67.00;;;;;;951937;147;27321;-78
2022/03/31 09:33:11;;;;;;;14.00;12.60;;;13.40;66.90;;;;;;954532;147;27418;-78
2022/03/31 09:35:37;;;;;;;13.27;11.87;;;13.40;66.50;;;;;;948792;147;27380;-78
2022/03/31 09:38:13;;;;;;;13.67;11.53;;;13.40;66.40;;;;;;940038;151;27293;-78
2022/03/31 09:40:39;;;;;;;13.07;11.67;;;13.40;66.70;;;;;;937979;151;27390;-78
2022/03/31 09:43:06;;;;;;;12.60;11.27;;;13.50;66.80;;;;;;945666;149;27345;-78
2022/03/31 09:45:39;;;;;;;12.60;11.17;;;13.50;66.80;;;;;;954499;149;27293;-78
2022/03/31 09:48:05;;;;;;;14.87;12.53;;;13.60;66.70;;;;;;941220;151;27356;-78
2022/03/31 09:50:36;;;;;;;13.63;11.80;;;13.60;66.40;;;;;;940404;150;27447;-77
2022/03/31 09:53:01;;;;;;;11.87;10.83;;;13.60;66.20;;;;;;940280;148;27294;-78
2022/03/31 09:55:28;;;;;;;13.23;11.93;;;13.60;66.00;;;;;;938916;151;27400;-78
2022/03/31 09:57:54;;;;;;;13.13;11.73;;;13.60;65.70;;;;;;937391;150;27325;-78
2022/03/31 10:00:22;;;;;;;13.17;11.83;;;13.60;65.50;;;;;;939553;152;27411;-78
2022/03/31 10:02:48;;;;;;;12.57;11.10;;;13.60;65.60;;;;;;939235;152;27317;-78
2022/03/31 10:05:15;;;;;;;13.60;11.43;;;13.60;65.50;;;;;;957015;146;27298;-78
2022/03/31 10:07:41;;;;;;;13.23;11.83;;;13.70;65.70;;;;;;952160;149;27268;-78
2022/03/31 10:10:08;;;;;;;14.10;11.93;;;13.60;65.50;;;;;;940577;150;27572;-78
2022/03/31 10:12:34;;;;;;;15.13;13.03;;;13.60;65.30;;;;;;954951;149;27323;-78
2022/03/31 10:15:07;;;;;;;15.67;12.57;;;13.70;65.00;;;;;;935814;152;27405;-78
2022/03/31 10:17:33;;;;;;;14.00;12.50;;;13.60;64.90;;;;;;937162;151;27347;-78
2022/03/31 10:20:06;;;;;;;13.13;11.47;;;13.60;64.90;;;;;;935423;149;27355;-78
2022/03/31 10:25:17;;;;;;;13.17;11.40;;;13.50;65.00;;;;;;943411;151;27425;-80
2022/03/31 10:27:49;;;;;;;12.67;11.37;;;13.40;65.10;;;;;;939859;152;28270;-80
2022/03/31 10:30:25;;;;;;;12.90;11.50;;;13.40;65.30;;;;;;938566;152;27410;-80
2022/03/31 10:32:54;;;;;;;14.07;11.87;;;13.40;65.40;;;;;;938030;151;27318;-80
2022/03/31 10:35:30;;;;;;;14.73;12.83;;;13.50;65.50;;;;;;939663;149;27385;-80
2022/03/31 10:37:57;;;;;;;13.63;12.23;;;13.50;65.70;;;;;;950065;147;28340;-80
2022/03/31 10:40:35;;;;;;;12.80;11.53;;;13.60;65.60;;;;;;948889;147;27297;-80
2022/03/31 10:43:01;;;;;;;13.17;11.73;;;13.60;65.30;;;;;;950458;147;27819;-78
2022/03/31 10:45:40;;;;;;;13.63;12.20;;;13.60;65.20;;;;;;949356;147;27370;-78
2022/03/31 10:48:15;;;;;;;12.30;11.00;;;13.70;65.20;;;;;;945906;147;27581;-78
2022/03/31 10:50:42;;;;;;;14.30;12.67;;;13.70;65.00;;;;;;950559;147;27388;-78
2022/03/31 10:53:09;;;;;;;13.60;12.03;;;13.70;65.20;;;;;;954863;145;27647;-77
2022/03/31 10:55:38;;;;;;;17.57;11.67;;;13.80;65.10;;;;;;940309;148;27299;-77
2022/03/31 10:58:05;;;;;;;12.57;11.27;;;13.80;65.00;;;;;;952288;147;27352;-78
2022/03/31 11:00:31;;;;;;;13.40;11.93;;;13.80;64.70;;;;;;952069;147;27383;-78
2022/03/31 11:02:58;;;;;;;13.50;12.07;;;13.80;64.50;;;;;;953837;147;27277;-78
2022/03/31 11:05:25;;;;;;;14.17;12.27;;;13.90;64.40;;;;;;955302;147;27317;-78
2022/03/31 11:07:51;;;;;;;12.90;11.60;;;13.90;64.20;;;;;;953017;147;27334;-78
2022/03/31 11:10:18;;;;;;;13.03;11.77;;;13.80;63.70;;;;;;951934;147;27348;-78
2022/03/31 11:12:44;;;;;;;13.90;12.07;;;13.80;63.80;;;;;;954516;147;27307;-78
2022/03/31 11:15:11;;;;;;;12.30;11.10;;;13.80;63.90;;;;;;952940;147;27339;-78
2022/03/31 11:17:37;;;;;;;11.83;10.70;;;13.80;64.10;;;;;;952829;147;27298;-78
2022/03/31 11:20:06;;;;;;;14.83;12.07;;;13.70;64.10;;;;;;953431;147;27355;-78
2022/03/31 11:22:31;;;;;;;13.03;11.67;;;13.70;64.10;;;;;;951616;147;27769;-78
2022/03/31 11:25:09;;;;;;;12.33;11.03;;;13.70;64.00;;;;;;953357;147;27305;-78
2022/03/31 11:27:38;;;;;;;12.13;10.93;;;13.70;63.80;;;;;;954194;147;27332;-78
2022/03/31 11:30:05;;;;;;;12.73;11.40;;;13.70;63.70;;;;;;952002;147;27367;-80
2022/03/31 11:32:31;;;;;;;11.53;10.43;;;13.70;63.70;;;;;;953649;147;27332;-80
2022/03/31 11:34:58;;;;;;;12.73;10.93;;;13.60;63.60;;;;;;943207;148;28245;-79
2022/03/31 11:37:25;;;;;;;12.30;10.93;;;13.60;63.80;;;;;;951641;147;27444;-80
2022/03/31 11:39:51;;;;;;;11.87;10.67;;;13.50;63.80;;;;;;950185;147;27348;-80
2022/03/31 11:42:18;;;;;;;11.30;10.17;;;13.50;63.90;;;;;;951813;147;27375;-77
2022/03/31 11:44:44;;;;;;;13.03;11.20;;;13.50;64.00;;;;;;950788;147;27481;-78
2022/03/31 11:47:17;;;;;;;11.73;10.53;;;13.50;64.10;;;;;;948752;147;27351;-78
2022/03/31 11:49:45;;;;;;;12.03;10.83;;;13.50;64.00;;;;;;949671;147;28063;-77
2022/03/31 11:52:11;;;;;;;13.07;11.30;;;13.50;63.90;;;;;;943925;148;27406;-78
2022/03/31 11:54:37;;;;;;;12.20;10.73;;;13.40;63.60;;;;;;950167;147;27452;-77
2022/03/31 11:57:04;;;;;;;11.43;10.33;;;13.40;63.70;;;;;;951672;147;27313;-78
2022/03/31 11:59:30;;;;;;;10.77;9.67;;;13.40;63.80;;;;;;947734;147;27348;-78
2022/03/31 12:01:57;;;;;;;12.13;10.47;;;13.40;64.00;;;;;;944328;148;27321;-78
2022/03/31 12:04:24;;;;;;;12.20;11.00;;;13.40;64.00;;;;;;938196;148;27350;-78
2022/03/31 12:06:50;;;;;;;13.03;11.20;;;13.40;63.90;;;;;;954375;145;27278;-78
2022/03/31 12:09:17;;;;;;;11.23;10.10;;;13.40;63.80;;;;;;952186;145;27337;-77
2022/03/31 12:11:43;;;;;;;12.33;10.30;;;13.40;63.90;;;;;;943608;148;27429;-77
2022/03/31 12:14:10;;;;;;;11.97;10.63;;;13.30;63.70;;;;;;936964;148;27291;-77
2022/03/31 12:16:45;;;;;;;10.23;9.07;;;13.40;63.70;;;;;;936306;148;27703;-77
2022/03/31 12:19:12;;;;;;;10.33;9.20;;;13.30;63.60;;;;;;944693;148;27379;-78
2022/03/31 12:21:45;;;;;;;11.87;10.67;;;13.30;63.70;;;;;;954314;145;27446;-78
2022/03/31 12:24:12;;;;;;;9.77;8.77;;;13.30;63.90;;;;;;955861;145;27339;-78
2022/03/31 12:26:38;;;;;;;10.83;9.73;;;13.30;64.00;;;;;;949190;147;27436;-78
2022/03/31 12:29:04;;;;;;;10.50;9.40;;;13.20;63.70;;;;;;949593;147;27330;-78
2022/03/31 12:31:31;;;;;;;11.40;9.57;;;13.20;63.50;;;;;;946138;147;27365;-78
2022/03/31 12:33:58;;;;;;;10.97;9.87;;;13.20;63.50;;;;;;948648;147;27293;-77
2022/03/31 12:36:24;;;;;;;10.27;9.20;;;13.20;63.70;;;;;;950789;147;27455;-78
2022/03/31 12:38:51;;;;;;;10.07;9.07;;;13.20;63.90;;;;;;950341;147;27433;-78
2022/03/31 12:41:26;;;;;;;11.07;9.97;;;13.20;64.00;;;;;;949545;147;27311;-78